WJA771 CYYZ-CYOW
Flight info
| Callsign | WJA771 |
|---|---|
| Flight time | 0h 40m |
| Altitude | 29000 |
| Route | VERDO7 ELSUB CAPTL5 |
| Aircraft | B38M/M-SDE1FGHILORVWXY/HB1 |
Departure
| Time | 2026-05-07 13:56 |
|---|---|
| Airport | Toronto Pearson International Airport (CYYZ) |
Arrival
| Time | 2026-05-07 14:37 |
|---|---|
| Airport | Ottawa Macdonald-Cartier International Airport (CYOW) |
| Time | Latitude | Longitude | Altitude | Speed | Heading |
|---|---|---|---|---|---|
| 2026-05-07 13:39 | 43.68538 | -79.62148 | 570 ft | 0 kts | 37° |
| 2026-05-07 13:49 | 43.68521 | -79.62165 | 573 ft | 4 kts | 33° |
| 2026-05-07 13:49 | 43.68498 | -79.62184 | 572 ft | 4 kts | 27° |
| 2026-05-07 13:49 | 43.68473 | -79.62200 | 567 ft | 4 kts | 25° |
| 2026-05-07 13:49 | 43.68450 | -79.62218 | 566 ft | 4 kts | 44° |
| 2026-05-07 13:50 | 43.68445 | -79.62226 | 567 ft | 0 kts | 53° |
| 2026-05-07 13:52 | 43.68449 | -79.62216 | 566 ft | 2 kts | 65° |
| 2026-05-07 13:52 | 43.68441 | -79.62187 | 567 ft | 5 kts | 141° |
| 2026-05-07 13:52 | 43.68391 | -79.62194 | 569 ft | 11 kts | 202° |
| 2026-05-07 13:53 | 43.68310 | -79.62297 | 571 ft | 21 kts | 238° |
| 2026-05-07 13:53 | 43.68283 | -79.62481 | 566 ft | 22 kts | 303° |
| 2026-05-07 13:53 | 43.68405 | -79.62651 | 565 ft | 27 kts | 316° |
| 2026-05-07 13:53 | 43.68541 | -79.62830 | 564 ft | 26 kts | 316° |
| 2026-05-07 13:54 | 43.68662 | -79.62986 | 564 ft | 22 kts | 317° |
| 2026-05-07 13:54 | 43.68763 | -79.63116 | 564 ft | 19 kts | 317° |
| 2026-05-07 13:54 | 43.68854 | -79.63236 | 564 ft | 18 kts | 316° |
| 2026-05-07 13:54 | 43.68945 | -79.63355 | 566 ft | 18 kts | 317° |
| 2026-05-07 13:55 | 43.69038 | -79.63477 | 566 ft | 19 kts | 316° |
| 2026-05-07 13:55 | 43.69158 | -79.63471 | 571 ft | 21 kts | 39° |
| 2026-05-07 13:55 | 43.69305 | -79.63421 | 568 ft | 20 kts | 1° |
| 2026-05-07 13:55 | 43.69394 | -79.63517 | 565 ft | 17 kts | 263° |
| 2026-05-07 13:56 | 43.69328 | -79.63635 | 567 ft | 25 kts | 227° |
| 2026-05-07 13:56 | 43.68993 | -79.64121 | 569 ft | 113 kts | 226° |
| 2026-05-07 13:56 | 43.68275 | -79.65173 | 678 ft | 178 kts | 229° |
| 2026-05-07 13:56 | 43.67386 | -79.66489 | 1646 ft | 193 kts | 227° |
| 2026-05-07 13:57 | 43.66414 | -79.67852 | 2792 ft | 207 kts | 226° |
| 2026-05-07 13:57 | 43.65423 | -79.69401 | 3655 ft | 224 kts | 233° |
| 2026-05-07 13:57 | 43.64186 | -79.70781 | 4700 ft | 234 kts | 199° |
| 2026-05-07 13:57 | 43.62539 | -79.70835 | 5829 ft | 253 kts | 166° |
| 2026-05-07 13:58 | 43.60968 | -79.69559 | 6673 ft | 275 kts | 141° |
| 2026-05-07 13:58 | 43.59454 | -79.67851 | 7606 ft | 283 kts | 148° |
| 2026-05-07 13:58 | 43.57840 | -79.66266 | 8753 ft | 287 kts | 148° |
| 2026-05-07 13:58 | 43.56198 | -79.64645 | 9826 ft | 294 kts | 149° |
| 2026-05-07 13:59 | 43.54514 | -79.62973 | 10658 ft | 306 kts | 149° |
| 2026-05-07 13:59 | 43.52778 | -79.61109 | 11235 ft | 329 kts | 137° |
| 2026-05-07 13:59 | 43.51506 | -79.58397 | 12004 ft | 348 kts | 112° |
| 2026-05-07 13:59 | 43.51076 | -79.55072 | 12770 ft | 361 kts | 88° |
| 2026-05-07 14:00 | 43.51563 | -79.51661 | 13587 ft | 367 kts | 71° |
| 2026-05-07 14:00 | 43.52262 | -79.48237 | 14352 ft | 375 kts | 73° |
| 2026-05-07 14:00 | 43.52940 | -79.44740 | 15108 ft | 381 kts | 73° |
| 2026-05-07 14:00 | 43.53839 | -79.41300 | 15844 ft | 383 kts | 59° |
| 2026-05-07 14:01 | 43.55064 | -79.38004 | 16528 ft | 390 kts | 59° |
| 2026-05-07 14:01 | 43.56294 | -79.34636 | 17272 ft | 396 kts | 59° |
| 2026-05-07 14:01 | 43.57538 | -79.31213 | 17983 ft | 402 kts | 59° |
| 2026-05-07 14:01 | 43.58801 | -79.27737 | 18619 ft | 408 kts | 59° |
| 2026-05-07 14:02 | 43.60079 | -79.24210 | 19242 ft | 413 kts | 59° |
| 2026-05-07 14:02 | 43.61368 | -79.20649 | 19844 ft | 418 kts | 59° |
| 2026-05-07 14:02 | 43.62675 | -79.17036 | 20432 ft | 423 kts | 59° |
| 2026-05-07 14:02 | 43.63995 | -79.13382 | 21024 ft | 428 kts | 59° |
| 2026-05-07 14:03 | 43.65328 | -79.09683 | 21608 ft | 433 kts | 59° |
| 2026-05-07 14:03 | 43.66678 | -79.05936 | 22191 ft | 437 kts | 60° |
| 2026-05-07 14:03 | 43.68039 | -79.02154 | 22761 ft | 442 kts | 60° |
| 2026-05-07 14:03 | 43.69412 | -78.98333 | 23318 ft | 447 kts | 60° |
| 2026-05-07 14:04 | 43.70800 | -78.94463 | 23813 ft | 451 kts | 60° |
| 2026-05-07 14:04 | 43.72198 | -78.90561 | 24271 ft | 455 kts | 60° |
| 2026-05-07 14:04 | 43.73607 | -78.86620 | 24716 ft | 459 kts | 60° |
| 2026-05-07 14:04 | 43.75029 | -78.82639 | 25154 ft | 464 kts | 60° |
| 2026-05-07 14:05 | 43.76461 | -78.78628 | 25588 ft | 468 kts | 60° |
| 2026-05-07 14:05 | 43.77882 | -78.74557 | 26012 ft | 472 kts | 61° |
| 2026-05-07 14:05 | 43.79306 | -78.70438 | 26432 ft | 476 kts | 61° |
| 2026-05-07 14:05 | 43.80742 | -78.66289 | 26846 ft | 480 kts | 61° |
| 2026-05-07 14:06 | 43.82189 | -78.62107 | 27268 ft | 484 kts | 61° |
| 2026-05-07 14:06 | 43.83627 | -78.57945 | 27676 ft | 487 kts | 61° |
| 2026-05-07 14:06 | 43.85092 | -78.53698 | 28079 ft | 491 kts | 61° |
| 2026-05-07 14:06 | 43.86568 | -78.49414 | 28484 ft | 494 kts | 61° |
| 2026-05-07 14:07 | 43.88054 | -78.45093 | 28865 ft | 498 kts | 61° |
| 2026-05-07 14:07 | 43.89552 | -78.40730 | 29015 ft | 506 kts | 62° |
| 2026-05-07 14:07 | 43.91063 | -78.36321 | 28969 ft | 507 kts | 62° |
| 2026-05-07 14:08 | 43.94082 | -78.27493 | 28980 ft | 506 kts | 62° |
| 2026-05-07 14:08 | 43.97094 | -78.18655 | 28981 ft | 506 kts | 62° |
| 2026-05-07 14:09 | 44.00097 | -78.09818 | 28972 ft | 506 kts | 62° |
| 2026-05-07 14:09 | 44.03093 | -78.00969 | 28977 ft | 506 kts | 62° |
| 2026-05-07 14:10 | 44.06083 | -77.92110 | 28970 ft | 507 kts | 62° |
| 2026-05-07 14:10 | 44.09070 | -77.83232 | 28974 ft | 507 kts | 62° |
| 2026-05-07 14:11 | 44.12052 | -77.74338 | 28980 ft | 507 kts | 62° |
| 2026-05-07 14:11 | 44.15026 | -77.65437 | 28977 ft | 507 kts | 62° |
| 2026-05-07 14:12 | 44.17994 | -77.56536 | 28974 ft | 507 kts | 62° |
| 2026-05-07 14:12 | 44.21820 | -77.48507 | 28972 ft | 491 kts | 37° |
| 2026-05-07 14:13 | 44.26873 | -77.42120 | 28978 ft | 490 kts | 35° |
| 2026-05-07 14:13 | 44.31995 | -77.35852 | 28974 ft | 489 kts | 34° |
| 2026-05-07 14:13 | 44.34565 | -77.32734 | 28736 ft | 486 kts | 34° |
| 2026-05-07 14:14 | 44.37070 | -77.29695 | 28227 ft | 481 kts | 34° |
| 2026-05-07 14:14 | 44.39585 | -77.26644 | 27748 ft | 476 kts | 34° |
| 2026-05-07 14:14 | 44.42073 | -77.23621 | 27275 ft | 472 kts | 34° |
| 2026-05-07 14:14 | 44.44539 | -77.20622 | 26799 ft | 467 kts | 34° |
| 2026-05-07 14:15 | 44.46985 | -77.17648 | 26275 ft | 465 kts | 34° |
| 2026-05-07 14:15 | 44.49419 | -77.14685 | 25796 ft | 462 kts | 34° |
| 2026-05-07 14:15 | 44.51826 | -77.11752 | 25351 ft | 457 kts | 34° |
| 2026-05-07 14:15 | 44.54216 | -77.08837 | 24899 ft | 454 kts | 34° |
| 2026-05-07 14:16 | 44.56587 | -77.05941 | 24451 ft | 450 kts | 35° |
| 2026-05-07 14:16 | 44.58941 | -77.03063 | 24004 ft | 447 kts | 35° |
| 2026-05-07 14:16 | 44.61260 | -77.00225 | 23558 ft | 438 kts | 35° |
| 2026-05-07 14:16 | 44.63530 | -76.97443 | 23064 ft | 429 kts | 34° |
| 2026-05-07 14:17 | 44.65635 | -76.94511 | 22498 ft | 428 kts | 48° |
| 2026-05-07 14:17 | 44.67355 | -76.91147 | 22142 ft | 418 kts | 50° |
| 2026-05-07 14:17 | 44.69042 | -76.87880 | 21747 ft | 409 kts | 49° |
| 2026-05-07 14:17 | 44.70700 | -76.84678 | 21294 ft | 402 kts | 49° |
| 2026-05-07 14:18 | 44.72337 | -76.81519 | 20846 ft | 397 kts | 49° |
| 2026-05-07 14:18 | 44.73965 | -76.78375 | 20392 ft | 398 kts | 49° |
| 2026-05-07 14:18 | 44.75590 | -76.75234 | 19950 ft | 397 kts | 49° |
| 2026-05-07 14:18 | 44.77213 | -76.72094 | 19514 ft | 396 kts | 49° |
| 2026-05-07 14:19 | 44.78830 | -76.68961 | 19075 ft | 396 kts | 50° |
| 2026-05-07 14:19 | 44.80447 | -76.65826 | 18635 ft | 395 kts | 50° |
| 2026-05-07 14:19 | 44.82060 | -76.62694 | 18178 ft | 395 kts | 50° |
| 2026-05-07 14:19 | 44.83670 | -76.59564 | 17692 ft | 393 kts | 50° |
| 2026-05-07 14:20 | 44.85249 | -76.56491 | 17331 ft | 382 kts | 50° |
| 2026-05-07 14:20 | 44.86786 | -76.53499 | 16949 ft | 373 kts | 50° |
| 2026-05-07 14:20 | 44.88287 | -76.50572 | 16541 ft | 364 kts | 50° |
| 2026-05-07 14:20 | 44.89756 | -76.47705 | 16138 ft | 357 kts | 50° |
| 2026-05-07 14:21 | 44.91201 | -76.44882 | 15748 ft | 354 kts | 50° |
| 2026-05-07 14:21 | 44.92639 | -76.42072 | 15347 ft | 352 kts | 50° |
| 2026-05-07 14:21 | 44.94065 | -76.39289 | 14958 ft | 348 kts | 49° |
| 2026-05-07 14:21 | 44.95539 | -76.36598 | 14518 ft | 345 kts | 48° |
| 2026-05-07 14:22 | 44.96994 | -76.33948 | 14147 ft | 339 kts | 48° |
| 2026-05-07 14:22 | 44.98431 | -76.31314 | 13788 ft | 338 kts | 48° |
| 2026-05-07 14:22 | 44.99844 | -76.28718 | 13384 ft | 336 kts | 48° |
| 2026-05-07 14:22 | 45.01263 | -76.26111 | 12980 ft | 333 kts | 48° |
| 2026-05-07 14:23 | 45.02669 | -76.23523 | 12595 ft | 331 kts | 48° |
| 2026-05-07 14:23 | 45.04066 | -76.20948 | 12238 ft | 329 kts | 49° |
| 2026-05-07 14:23 | 45.05454 | -76.18387 | 11876 ft | 327 kts | 49° |
| 2026-05-07 14:23 | 45.06833 | -76.15842 | 11513 ft | 325 kts | 49° |
| 2026-05-07 14:24 | 45.08197 | -76.13321 | 11152 ft | 319 kts | 49° |
| 2026-05-07 14:24 | 45.09532 | -76.10853 | 10800 ft | 312 kts | 48° |
| 2026-05-07 14:24 | 45.10839 | -76.08435 | 10451 ft | 307 kts | 49° |
| 2026-05-07 14:24 | 45.12120 | -76.06064 | 10112 ft | 300 kts | 48° |
| 2026-05-07 14:25 | 45.13373 | -76.03741 | 9769 ft | 293 kts | 49° |
| 2026-05-07 14:25 | 45.14596 | -76.01469 | 9429 ft | 288 kts | 49° |
| 2026-05-07 14:25 | 45.15811 | -75.99216 | 9085 ft | 287 kts | 49° |
| 2026-05-07 14:25 | 45.17015 | -75.96977 | 8771 ft | 285 kts | 49° |
| 2026-05-07 14:26 | 45.18214 | -75.94748 | 8441 ft | 283 kts | 49° |
| 2026-05-07 14:26 | 45.19404 | -75.92536 | 8134 ft | 281 kts | 49° |
| 2026-05-07 14:26 | 45.20584 | -75.90338 | 7823 ft | 279 kts | 49° |
| 2026-05-07 14:26 | 45.21548 | -75.87947 | 7470 ft | 283 kts | 71° |
| 2026-05-07 14:27 | 45.21669 | -75.85166 | 7137 ft | 286 kts | 100° |
| 2026-05-07 14:27 | 45.21115 | -75.82465 | 6867 ft | 284 kts | 108° |
| 2026-05-07 14:27 | 45.20503 | -75.79812 | 6562 ft | 283 kts | 108° |
| 2026-05-07 14:27 | 45.19889 | -75.77174 | 6238 ft | 280 kts | 108° |
| 2026-05-07 14:28 | 45.19488 | -75.75453 | 6022 ft | 274 kts | 108° |
| 2026-05-07 14:28 | 45.18895 | -75.72919 | 5683 ft | 267 kts | 109° |
| 2026-05-07 14:28 | 45.18317 | -75.70455 | 5393 ft | 259 kts | 108° |
| 2026-05-07 14:28 | 45.17759 | -75.68066 | 5129 ft | 250 kts | 108° |
| 2026-05-07 14:29 | 45.17227 | -75.65805 | 5063 ft | 234 kts | 108° |
| 2026-05-07 14:29 | 45.16715 | -75.63631 | 4909 ft | 232 kts | 108° |
| 2026-05-07 14:29 | 45.16207 | -75.61470 | 4820 ft | 231 kts | 108° |
| 2026-05-07 14:29 | 45.15699 | -75.59313 | 4765 ft | 231 kts | 109° |
| 2026-05-07 14:30 | 45.15192 | -75.57155 | 4671 ft | 231 kts | 109° |
| 2026-05-07 14:30 | 45.14684 | -75.54998 | 4570 ft | 231 kts | 109° |
| 2026-05-07 14:30 | 45.14111 | -75.52884 | 4427 ft | 230 kts | 120° |
| 2026-05-07 14:30 | 45.13273 | -75.50965 | 4131 ft | 230 kts | 114° |
| 2026-05-07 14:31 | 45.13068 | -75.48782 | 3922 ft | 224 kts | 77° |
| 2026-05-07 14:31 | 45.13741 | -75.46879 | 3924 ft | 216 kts | 40° |
| 2026-05-07 14:31 | 45.15003 | -75.45883 | 3912 ft | 205 kts | 5° |
| 2026-05-07 14:31 | 45.16411 | -75.45759 | 3902 ft | 202 kts | 354° |
| 2026-05-07 14:32 | 45.17817 | -75.45793 | 3831 ft | 202 kts | 353° |
| 2026-05-07 14:32 | 45.19221 | -75.45836 | 3716 ft | 202 kts | 353° |
| 2026-05-07 14:32 | 45.20535 | -75.46213 | 3578 ft | 182 kts | 327° |
| 2026-05-07 14:32 | 45.21505 | -75.47237 | 3464 ft | 171 kts | 311° |
| 2026-05-07 14:33 | 45.22266 | -75.48503 | 3297 ft | 168 kts | 304° |
| 2026-05-07 14:33 | 45.22949 | -75.49823 | 3093 ft | 163 kts | 303° |
| 2026-05-07 14:33 | 45.23607 | -75.51098 | 2891 ft | 158 kts | 303° |
| 2026-05-07 14:33 | 45.24253 | -75.52346 | 2711 ft | 157 kts | 303° |
| 2026-05-07 14:34 | 45.24898 | -75.53587 | 2505 ft | 156 kts | 303° |
| 2026-05-07 14:34 | 45.25508 | -75.54765 | 2328 ft | 138 kts | 303° |
| 2026-05-07 14:34 | 45.26064 | -75.55829 | 2150 ft | 132 kts | 303° |
| 2026-05-07 14:34 | 45.26603 | -75.56872 | 1953 ft | 131 kts | 303° |
| 2026-05-07 14:35 | 45.27143 | -75.57912 | 1774 ft | 130 kts | 303° |
| 2026-05-07 14:35 | 45.27680 | -75.58946 | 1592 ft | 130 kts | 303° |
| 2026-05-07 14:35 | 45.28216 | -75.59980 | 1416 ft | 130 kts | 303° |
| 2026-05-07 14:35 | 45.28757 | -75.61014 | 1200 ft | 130 kts | 304° |
| 2026-05-07 14:36 | 45.29294 | -75.62054 | 1025 ft | 131 kts | 303° |
| 2026-05-07 14:36 | 45.29831 | -75.63094 | 825 ft | 130 kts | 303° |
| 2026-05-07 14:36 | 45.30370 | -75.64125 | 649 ft | 129 kts | 303° |
| 2026-05-07 14:36 | 45.30905 | -75.65146 | 508 ft | 128 kts | 302° |
| 2026-05-07 14:37 | 45.31424 | -75.66146 | 379 ft | 118 kts | 301° |
| 2026-05-07 14:37 | 45.31993 | -75.67249 | 371 ft | 34 kts | 312° |
| 2026-05-07 14:37 | 45.32102 | -75.67210 | 373 ft | 9 kts | 57° |
| 2026-05-07 14:38 | 45.32117 | -75.67164 | 375 ft | 0 kts | 75° |
| 2026-05-07 14:38 | 45.32119 | -75.67149 | 377 ft | 3 kts | 85° |
| 2026-05-07 14:38 | 45.32092 | -75.67052 | 378 ft | 21 kts | 126° |
| 2026-05-07 14:38 | 45.31995 | -75.66864 | 379 ft | 22 kts | 126° |
| 2026-05-07 14:39 | 45.31913 | -75.66706 | 379 ft | 22 kts | 127° |
| 2026-05-07 14:39 | 45.31845 | -75.66540 | 379 ft | 20 kts | 94° |
| 2026-05-07 14:39 | 45.31891 | -75.66384 | 379 ft | 16 kts | 56° |
| 2026-05-07 14:39 | 45.31962 | -75.66256 | 379 ft | 12 kts | 26° |
| 2026-05-07 14:40 | 45.32031 | -75.66287 | 379 ft | 12 kts | 295° |
| 2026-05-07 14:40 | 45.32060 | -75.66378 | 379 ft | 7 kts | 291° |
| 2026-05-07 14:40 | 45.32063 | -75.66389 | 379 ft | 0 kts | 291° |